Greenway, New York
Current Conditions -  °F | °C
As of 3:53 PM on Saturday 25 Oct 2014 (Local Time) from KRME Reporting Station
Overcast Overcast  
Wind Chill: 61°   Ceiling: 7500
Heat Index: 61°   Visibility: 10mi
Dew Point: 47°   Wind: 5mph
Humidity: 60%   Direction: 230°SW
Pressure: 29.59"   Gusts: NA
Location:  43.2466°N, 75.4624°W
Report Text: KRME 251953Z 23004KT 10SM OVC075 16/08 A2959 RMK AO2 RAB40E52 SLP020 P0000 T01610083
Loading
Personal Weather Stations






























Interactive Weather Map
Tropical Storm Tracking
New forecast layout! Learn more

10-Day Weather Forecast

Advertisements
Track Severe Weather on mobile